Time;durP1;ratioP1;P1;durP2;ratioP2;P2;SDS_P1;SDS_P2;PMS_P1;PMS_P2;Temp;Humidity;BMP_temperature;BMP_pressure;BME280_temperature;BME280_humidity;BME280_pressure;Samples;Min_cycle;Max_cycle;Signal;HPM_P1;HPM_P2
2023/01/05 00:00:13;;;;;;;16.97;15.17;;;;;;;7.92;100.00;102474.34;2112657;27;20626;-70
2023/01/05 00:01:13;;;;;;;20.35;17.55;;;;;;;7.21;100.00;102363.97;2112942;28;20188;-70
2023/01/05 00:02:14;;;;;;;18.70;16.30;;;;;;;7.86;100.00;102470.31;2112918;27;20207;-70
2023/01/05 00:03:14;;;;;;;21.50;17.40;;;;;;;7.66;100.00;102430.97;2116238;27;20208;-70
2023/01/05 00:04:15;;;;;;;22.40;17.50;;;;;;;7.91;100.00;102475.53;2110749;28;20209;-70
2023/01/05 00:05:15;;;;;;;21.43;17.23;;;;;;;7.70;100.00;102431.78;2115220;28;20204;-70
2023/01/05 00:06:17;;;;;;;21.47;17.50;;;;;;;7.82;100.00;102470.25;2112221;27;20236;-70
2023/01/05 00:07:17;;;;;;;22.60;18.75;;;;;;;7.97;100.00;102474.84;2112671;28;20206;-70
2023/01/05 00:08:17;;;;;;;20.57;15.50;;;;;;;7.54;100.00;102406.31;2117342;27;20183;-70
2023/01/05 00:09:18;;;;;;;19.77;15.50;;;;;;;7.93;100.00;102467.66;2113677;27;20181;-70
2023/01/05 00:22:37;;;;;;;20.77;16.73;;;;;;;7.83;100.00;102451.72;2116192;28;20175;-70
2023/01/05 00:23:37;;;;;;;21.60;16.98;;;;;;;7.75;100.00;102436.22;2111753;28;20298;-70
2023/01/05 00:24:38;;;;;;;22.90;18.33;;;;;;;7.37;100.00;102370.13;2111673;28;20194;-70
2023/01/05 00:25:40;;;;;;;22.73;18.07;;;;;;;7.80;100.00;102442.22;2112484;28;20651;-70
2023/01/05 00:26:40;;;;;;;18.10;15.57;;;;;;;7.78;100.00;102436.28;2115101;28;20264;-70
2023/01/05 00:27:43;;;;;;;21.53;16.67;;;;;;;7.78;100.00;102433.50;2112265;28;20204;-70
2023/01/05 00:28:44;;;;;;;21.88;17.52;;;;;;;7.78;100.00;102435.47;2112585;28;20236;-70
2023/01/05 00:29:44;;;;;;;21.30;17.67;;;;;;;7.78;100.00;102438.22;2113666;28;20648;-70
2023/01/05 00:30:46;;;;;;;24.03;18.40;;;;;;;7.79;100.00;102426.03;2119862;28;20622;-70
2023/01/05 00:31:46;;;;;;;23.02;18.40;;;;;;;7.79;100.00;102429.59;2110444;28;20726;-70
2023/01/05 00:32:47;;;;;;;23.70;18.53;;;;;;;7.77;100.00;102437.44;2112059;28;20189;-70
2023/01/05 00:33:47;;;;;;;22.50;17.83;;;;;;;7.77;100.00;102422.84;2111973;28;20178;-70
2023/01/05 00:34:49;;;;;;;23.77;16.20;;;;;;;7.74;100.00;102424.38;2111160;28;20179;-70
2023/01/05 00:35:50;;;;;;;20.38;16.45;;;;;;;7.73;100.00;102416.47;2116244;28;20567;-70
2023/01/05 00:36:50;;;;;;;19.33;16.53;;;;;;;7.71;100.00;102422.38;2112012;28;20183;-70
2023/01/05 00:37:51;;;;;;;19.67;16.27;;;;;;;7.67;100.00;102410.47;2113183;28;20494;-70
2023/01/05 00:38:52;;;;;;;20.00;17.03;;;;;;;7.71;100.00;102416.03;2113182;28;20179;-70
2023/01/05 00:39:53;;;;;;;18.85;16.60;;;;;;;7.71;100.00;102422.38;2110942;28;20579;-70
2023/01/05 00:40:54;;;;;;;20.67;16.60;;;;;;;7.29;100.00;102360.16;2114176;27;20187;-70
2023/01/05 00:41:54;;;;;;;20.92;17.70;;;;;;;7.69;100.00;102429.44;2114208;27;20668;-70
2023/01/05 00:42:55;;;;;;;20.00;16.27;;;;;;;7.66;100.00;102430.16;2114236;27;20278;-70
2023/01/05 00:43:55;;;;;;;21.03;17.50;;;;;;;7.65;100.00;102432.13;2113926;27;20254;-70
2023/01/05 00:44:56;;;;;;;20.53;16.53;;;;;;;7.59;100.00;102430.81;2114664;27;20183;-70
2023/01/05 00:45:56;;;;;;;16.50;13.03;;;;;;;7.53;100.00;102432.31;2120931;27;20249;-70
2023/01/05 00:46:56;;;;;;;17.47;14.93;;;;;;;7.47;100.00;102431.03;2114645;27;20250;-70
2023/01/05 00:47:57;;;;;;;17.50;14.23;;;;;;;7.03;100.00;102371.91;2107628;28;20675;-70
2023/01/05 00:48:57;;;;;;;18.47;14.83;;;;;;;7.32;100.00;102422.84;2107519;28;20653;-70
2023/01/05 00:49:58;;;;;;;17.73;14.90;;;;;;;7.21;100.00;102417.16;2116111;27;20202;-70
2023/01/05 00:50:58;;;;;;;17.67;14.87;;;;;;;7.25;100.00;102423.53;2117290;27;20271;-70
2023/01/05 00:51:59;;;;;;;21.27;15.87;;;;;;;7.28;100.00;102427.53;2118346;27;20178;-70
2023/01/05 00:52:59;;;;;;;21.97;15.67;;;;;;;7.28;100.00;102419.25;2122009;27;20710;-70
2023/01/05 00:54:00;;;;;;;20.17;15.40;;;;;;;7.30;100.00;102422.44;2118087;27;20615;-70
2023/01/05 00:55:00;;;;;;;19.80;15.40;;;;;;;7.30;100.00;102426.00;2114347;27;20239;-70
2023/01/05 00:56:01;;;;;;;19.00;16.20;;;;;;;6.87;100.00;102364.94;2116103;27;20210;-70
2023/01/05 00:57:01;;;;;;;17.47;15.53;;;;;;;6.96;100.00;102373.75;2112385;28;20199;-70
2023/01/05 00:58:02;;;;;;;17.57;14.90;;;;;;;7.29;100.00;102429.13;2115733;27;20700;-70
2023/01/05 00:59:02;;;;;;;18.20;15.27;;;;;;;7.29;100.00;102427.13;2116221;27;20196;-70
2023/01/05 01:00:06;;;;;;;17.80;15.33;;;;;;;7.30;100.00;102427.94;2114364;27;20588;-70
2023/01/05 01:01:11;;;;;;;19.05;16.63;;;;;;;6.93;100.00;102377.25;2117017;27;20541;-70
2023/01/05 01:02:11;;;;;;;20.23;15.70;;;;;;;7.30;100.00;102426.00;2112261;27;20594;-70
2023/01/05 01:03:11;;;;;;;18.60;15.83;;;;;;;7.29;100.00;102434.63;2116520;27;20209;-70
2023/01/05 01:04:12;;;;;;;18.00;15.23;;;;;;;7.26;100.00;102427.88;2119499;27;20278;-70
2023/01/05 01:05:13;;;;;;;20.53;15.87;;;;;;;7.20;100.00;102417.53;2113666;27;20186;-70
2023/01/05 01:06:14;;;;;;;19.23;15.97;;;;;;;7.22;100.00;102429.00;2120530;27;20196;-70
2023/01/05 01:07:15;;;;;;;19.17;15.27;;;;;;;6.19;100.00;102260.13;2115545;27;20205;-70
2023/01/05 01:08:15;;;;;;;18.73;15.97;;;;;;;7.19;100.00;102413.97;2112388;27;20218;-70
2023/01/05 01:09:16;;;;;;;19.70;15.53;;;;;;;6.58;100.00;102321.47;2114834;27;20282;-70
2023/01/05 01:10:16;;;;;;;19.30;15.47;;;;;;;7.17;100.00;102410.00;2112459;27;20239;-70
2023/01/05 01:11:17;;;;;;;18.10;15.87;;;;;;;7.01;100.00;102396.28;2118374;27;20185;-70
2023/01/05 01:12:17;;;;;;;19.43;15.43;;;;;;;6.66;100.00;102332.25;2117303;27;20535;-70
2023/01/05 01:13:18;;;;;;;19.27;15.33;;;;;;;7.12;100.00;102407.53;2117584;27;20204;-70
2023/01/05 01:14:18;;;;;;;19.07;15.50;;;;;;;6.93;100.00;102380.00;2114302;27;20186;-70
2023/01/05 01:15:19;;;;;;;19.07;14.60;;;;;;;7.08;100.00;102404.69;2117597;27;20197;-70
2023/01/05 01:16:20;;;;;;;18.67;14.87;;;;;;;7.04;100.00;102412.13;2116605;27;20179;-70
2023/01/05 01:17:20;;;;;;;18.83;15.43;;;;;;;7.03;100.00;102410.50;2117711;27;20632;-70
2023/01/05 01:18:22;;;;;;;19.47;15.40;;;;;;;7.02;100.00;102406.16;2112512;27;20636;-70
2023/01/05 01:19:24;;;;;;;19.45;14.98;;;;;;;7.01;100.00;102395.50;2118403;27;20216;-70
2023/01/05 01:20:24;;;;;;;20.10;15.48;;;;;;;6.96;100.00;102379.25;2115390;27;20622;-70
2023/01/05 01:21:25;;;;;;;17.23;14.40;;;;;;;6.50;100.00;102311.44;2114011;27;20205;-70
2023/01/05 01:22:25;;;;;;;19.77;15.30;;;;;;;6.98;100.00;102380.47;2114636;27;20194;-70
2023/01/05 01:23:26;;;;;;;17.60;14.53;;;;;;;6.39;100.00;102289.22;2115191;27;20197;-70
2023/01/05 01:24:27;;;;;;;16.70;14.90;;;;;;;6.68;100.00;102329.94;2115693;27;20198;-70
2023/01/05 01:25:27;;;;;;;18.67;15.10;;;;;;;6.94;100.00;102371.38;2119768;27;20651;-70
2023/01/05 01:26:28;;;;;;;18.00;15.00;;;;;;;6.93;100.00;102371.72;2114251;28;20231;-70
2023/01/05 01:27:30;;;;;;;17.77;15.10;;;;;;;6.28;100.00;102263.44;2114361;27;20194;-70
2023/01/05 01:28:30;;;;;;;20.05;14.80;;;;;;;6.50;100.00;102294.94;2119601;27;20200;-70
2023/01/05 01:29:31;;;;;;;18.77;16.03;;;;;;;6.88;100.00;102363.75;2119607;27;20208;-70
2023/01/05 01:30:31;;;;;;;19.53;15.30;;;;;;;6.55;100.00;102300.13;2111657;27;20191;-70
2023/01/05 01:31:34;;;;;;;18.97;15.17;;;;;;;6.59;100.00;102303.75;2119106;27;20272;-70
2023/01/05 01:32:34;;;;;;;18.65;15.43;;;;;;;6.90;100.00;102350.41;2111480;27;20229;-70
2023/01/05 01:33:38;;;;;;;18.53;15.53;;;;;;;6.86;100.00;102341.25;2119466;27;20271;-70
2023/01/05 01:34:38;;;;;;;19.02;15.63;;;;;;;6.90;100.00;102347.66;2112982;28;20185;-70
2023/01/05 01:35:39;;;;;;;19.33;15.67;;;;;;;6.88;100.00;102345.25;2117761;27;20722;-70
2023/01/05 01:36:40;;;;;;;17.60;15.27;;;;;;;6.89;100.00;102354.31;2114078;27;20182;-70
2023/01/05 01:37:40;;;;;;;19.07;15.20;;;;;;;6.86;100.00;102331.06;2114532;27;20197;-70
2023/01/05 01:38:41;;;;;;;22.27;18.63;;;;;;;6.85;100.00;102342.44;2115078;27;20278;-70
2023/01/05 01:39:41;;;;;;;21.17;17.03;;;;;;;6.85;100.00;102326.72;2117619;27;20654;-70
2023/01/05 01:40:45;;;;;;;20.13;17.57;;;;;;;6.85;100.00;102320.38;2115411;27;20231;-70
2023/01/05 01:41:45;;;;;;;21.55;17.42;;;;;;;6.85;100.00;102320.38;2113692;27;20187;-70
2023/01/05 01:42:46;;;;;;;21.60;17.93;;;;;;;6.85;100.00;102318.44;2116538;27;20584;-70
2023/01/05 01:43:49;;;;;;;20.97;17.70;;;;;;;6.88;100.00;102314.94;2114091;27;20192;-70
2023/01/05 01:44:55;;;;;;;19.60;17.08;;;;;;;6.90;100.00;102309.06;2111840;28;20179;-70
2023/01/05 01:45:55;;;;;;;20.63;17.10;;;;;;;6.92;100.00;102312.25;2106094;27;20178;-70
2023/01/05 01:46:56;;;;;;;18.60;16.57;;;;;;;6.91;100.00;102300.44;2115730;27;20183;-70
2023/01/05 01:47:59;;;;;;;21.17;16.60;;;;;;;6.91;100.00;102302.38;2116042;27;20762;-70
2023/01/05 01:49:09;;;;;;;20.65;16.35;;;;;;;6.91;100.00;102297.69;2108645;28;20193;-70
2023/01/05 01:50:30;;;;;;;20.70;17.42;;;;;;;6.63;100.00;102244.84;2106784;27;20845;-70
2023/01/05 01:51:43;;;;;;;19.35;15.98;;;;;;;6.92;100.00;102288.25;2118575;27;20288;-70
2023/01/05 01:52:48;;;;;;;19.67;16.08;;;;;;;6.91;100.00;102285.84;2113079;27;20181;-70
2023/01/05 01:53:54;;;;;;;20.35;14.30;;;;;;;6.50;100.00;102232.38;2114805;27;20610;-70
2023/01/05 01:54:55;;;;;;;19.20;16.20;;;;;;;6.34;100.00;102178.56;2109864;28;20218;-70
2023/01/05 01:55:59;;;;;;;18.63;14.53;;;;;;;6.91;100.00;102272.06;2113979;27;20193;-70
2023/01/05 01:57:00;;;;;;;18.75;15.18;;;;;;;6.50;100.00;102204.84;2115328;27;20447;-70
2023/01/05 01:58:04;;;;;;;20.57;17.77;;;;;;;6.93;100.00;102278.03;2117417;27;20700;-70
2023/01/05 01:59:05;;;;;;;22.02;17.42;;;;;;;6.94;100.00;102277.66;2117697;27;20201;-70
2023/01/05 02:00:08;;;;;;;19.67;15.65;;;;;;;6.92;100.00;102276.44;2115419;27;20657;-70
2023/01/05 02:01:09;;;;;;;18.92;15.88;;;;;;;6.86;100.00;102283.38;2117208;27;20655;-70
2023/01/05 02:02:11;;;;;;;18.45;15.43;;;;;;;6.62;100.00;102256.22;2114955;27;20182;-70
2023/01/05 02:03:13;;;;;;;16.55;14.73;;;;;;;6.77;100.00;102286.38;2120878;27;20233;-70
2023/01/05 02:04:13;;;;;;;18.80;15.02;;;;;;;6.42;100.00;102254.66;2115090;27;20273;-70
2023/01/05 02:05:17;;;;;;;19.00;16.73;;;;;;;6.58;100.00;102280.94;2119781;27;20182;-70
2023/01/05 02:06:17;;;;;;;18.83;14.93;;;;;;;6.45;100.00;102259.41;2121082;27;20658;-70
2023/01/05 02:07:18;;;;;;;20.33;16.10;;;;;;;6.53;100.00;102281.25;2113824;27;20588;-70
2023/01/05 02:08:24;;;;;;;20.53;15.77;;;;;;;6.52;100.00;102276.09;2116374;27;21160;-70
2023/01/05 02:09:24;;;;;;;18.45;15.25;;;;;;;6.46;100.00;102267.31;2111255;28;20279;-70
2023/01/05 02:11:04;;;;;;;19.97;16.57;;;;;;;6.48;100.00;102267.78;2116799;27;20187;-70
2023/01/05 02:12:23;;;;;;;17.92;14.65;;;;;;;6.48;100.00;102265.00;2075062;27;20209;-70
2023/01/05 02:13:26;;;;;;;21.42;15.32;;;;;;;6.47;100.00;102268.13;2116211;27;20196;-70
2023/01/05 02:14:41;;;;;;;19.88;15.85;;;;;;;6.45;100.00;102265.72;2110420;28;20193;-70
2023/01/05 02:15:54;;;;;;;18.40;14.35;;;;;;;6.47;100.00;102270.88;2110594;27;20200;-70
2023/01/05 02:17:07;;;;;;;19.25;14.75;;;;;;;5.86;100.00;102165.47;2115886;27;20177;-70
2023/01/05 02:18:32;;;;;;;17.08;14.55;;;;;;;6.42;100.00;102255.44;2114286;27;20174;-70
2023/01/05 02:19:54;;;;;;;19.70;14.02;;;;;;;6.41;100.00;102259.34;2114182;27;20184;-70
2023/01/05 02:21:13;;;;;;;20.40;13.77;;;;;;;6.40;100.00;102257.00;2121294;27;20207;-70
2023/01/05 02:22:33;;;;;;;18.20;14.40;;;;;;;6.40;100.00;102252.25;2107976;27;20651;-70
2023/01/05 02:23:45;;;;;;;19.98;14.77;;;;;;;6.42;100.00;102254.66;2115140;27;20194;-70
2023/01/05 02:25:22;;;;;;;17.75;14.98;;;;;;;6.42;100.00;102249.94;2111455;28;20792;-70
2023/01/05 02:26:35;;;;;;;19.40;14.95;;;;;;;6.41;100.00;102259.34;2109583;27;20170;-70
2023/01/05 02:27:35;;;;;;;17.80;14.30;;;;;;;6.40;100.00;102252.25;2105600;28;20186;-70
2023/01/05 02:28:54;;;;;;;19.13;15.23;;;;;;;6.41;100.00;102248.34;2108797;28;20188;-70
2023/01/05 02:30:19;;;;;;;17.67;13.93;;;;;;;6.40;100.00;102255.00;2115387;27;20177;-70
2023/01/05 02:31:47;;;;;;;16.55;14.63;;;;;;;6.38;100.00;102251.84;2107899;27;20197;-70
2023/01/05 02:32:57;;;;;;;18.95;14.95;;;;;;;6.09;100.00;102221.34;2104968;27;20205;-70
2023/01/05 02:34:08;;;;;;;18.02;14.25;;;;;;;6.37;100.00;102244.75;2118166;27;20232;-70
2023/01/05 02:35:39;;;;;;;18.40;14.35;;;;;;;6.37;100.00;102246.69;2120132;27;20204;-70
2023/01/05 02:37:00;;;;;;;19.63;14.80;;;;;;;6.37;100.00;102247.50;2114727;27;20214;-70
2023/01/05 02:38:22;;;;;;;20.10;15.43;;;;;;;6.12;100.00;102202.19;2117709;27;20260;-70
2023/01/05 02:39:38;;;;;;;18.73;14.52;;;;;;;6.39;100.00;102241.59;2111838;27;20200;-70
2023/01/05 02:40:44;;;;;;;17.13;13.23;;;;;;;6.38;100.00;102232.56;2111364;28;20207;-70
2023/01/05 02:41:54;;;;;;;19.25;14.52;;;;;;;6.34;100.00;102231.69;2116390;27;20215;-70
2023/01/05 02:42:56;;;;;;;19.70;15.20;;;;;;;6.25;100.00;102225.63;2117272;27;20210;-70
2023/01/05 02:44:00;;;;;;;17.45;13.75;;;;;;;5.43;100.00;102099.75;2113586;28;20189;-70
2023/01/05 02:45:04;;;;;;;17.60;14.55;;;;;;;6.32;100.00;102242.28;2110910;27;20192;-70
2023/01/05 02:46:04;;;;;;;18.92;13.82;;;;;;;6.28;100.00;102238.66;2115333;27;20187;-70
2023/01/05 02:47:23;;;;;;;16.40;12.90;;;;;;;6.23;100.00;102238.16;2118794;27;20184;-70
2023/01/05 02:48:24;;;;;;;19.13;13.63;;;;;;;6.16;100.00;102238.03;2113007;27;20508;-70
2023/01/05 02:49:26;;;;;;;20.23;13.17;;;;;;;6.09;100.00;102233.16;2113537;27;20179;-70
2023/01/05 02:51:00;;;;;;;15.35;12.55;;;;;;;5.98;100.00;102234.91;2113714;27;20222;-70
2023/01/05 02:52:03;;;;;;;15.50;12.07;;;;;;;5.85;100.00;102244.47;2101995;27;20221;-70
2023/01/05 02:53:12;;;;;;;13.70;11.38;;;;;;;5.79;100.00;102237.63;2106740;28;20169;-70
2023/01/05 02:54:34;;;;;;;15.23;12.60;;;;;;;5.04;100.00;102131.09;2109491;27;20240;-70
2023/01/05 02:55:48;;;;;;;17.02;13.95;;;;;;;5.67;100.00;102234.22;2118558;27;20195;-70
2023/01/05 02:57:15;;;;;;;17.13;14.35;;;;;;;5.64;100.00;102245.94;2109706;27;20196;-70
2023/01/05 02:58:32;;;;;;;16.42;12.55;;;;;;;5.62;100.00;102245.50;2116930;27;20200;-70
2023/01/05 02:59:50;;;;;;;16.13;13.05;;;;;;;5.58;100.00;102239.91;2113265;27;20181;-70
2023/01/05 03:00:56;;;;;;;18.40;14.43;;;;;;;5.50;100.00;102243.69;2116149;27;20255;-70
2023/01/05 03:02:00;;;;;;;18.90;14.90;;;;;;;5.42;100.00;102252.09;2118057;27;20264;-70
2023/01/05 03:03:25;;;;;;;18.50;15.05;;;;;;;5.33;100.00;102246.03;2114643;27;20196;-70
2023/01/05 03:04:38;;;;;;;18.88;14.15;;;;;;;5.30;100.00;102243.97;2092169;28;20193;-70
2023/01/05 03:05:51;;;;;;;19.27;15.18;;;;;;;5.37;100.00;102238.63;2111914;28;20181;-70
2023/01/05 03:06:58;;;;;;;19.52;16.02;;;;;;;5.40;100.00;102236.00;2112685;27;20229;-70
2023/01/05 03:08:06;;;;;;;21.02;16.27;;;;;;;5.38;100.00;102245.75;2111146;28;20191;-70
2023/01/05 03:09:07;;;;;;;23.52;17.02;;;;;;;4.76;100.00;102149.66;2109054;27;20245;-70
2023/01/05 03:14:32;;;;;;;22.27;17.30;;;;;;;5.42;100.00;102235.63;2113980;27;20192;-70
2023/01/05 03:15:33;;;;;;;23.20;17.90;;;;;;;5.41;100.00;102228.53;2115118;27;20206;-70
2023/01/05 03:16:36;;;;;;;23.60;18.15;;;;;;;4.80;100.00;102125.81;2108819;28;20212;-70
2023/01/05 03:17:47;;;;;;;23.48;19.20;;;;;;;5.48;100.00;102229.47;2116286;27;20191;-70
2023/01/05 03:20:13;;;;;;;19.65;15.63;;;;;;;5.51;100.00;102231.53;2117125;27;20192;-70
2023/01/05 03:21:14;;;;;;;20.77;16.70;;;;;;;5.53;100.00;102220.19;2116671;27;20177;-70
2023/01/05 03:35:32;;;;;;;15.98;12.00;;;;;;;5.29;100.00;102204.69;2115261;27;20171;-70
2023/01/05 03:36:40;;;;;;;17.15;12.68;;;;;;;5.27;100.00;102204.25;2110490;27;20182;-70
2023/01/05 03:37:58;;;;;;;18.08;13.98;;;;;;;5.23;100.00;102208.88;2118142;27;20680;-70
2023/01/05 03:39:01;;;;;;;16.60;13.90;;;;;;;5.20;100.00;102197.81;2115195;27;20267;-70
2023/01/05 03:40:06;;;;;;;19.85;15.93;;;;;;;5.19;100.00;102193.47;2111537;27;20324;-70
2023/01/05 03:41:11;;;;;;;24.05;18.10;;;;;;;5.15;100.00;102193.41;2109658;28;20182;-70
2023/01/05 03:42:14;;;;;;;20.83;16.95;;;;;;;4.81;100.00;102138.41;2121652;27;20238;-70
2023/01/05 03:43:14;;;;;;;23.17;17.88;;;;;;;5.25;100.00;102201.09;2113322;27;20766;-70
2023/01/05 03:44:15;;;;;;;22.23;17.60;;;;;;;4.39;100.00;102055.03;2110587;27;20604;-70
2023/01/05 03:45:17;;;;;;;20.97;16.67;;;;;;;5.29;100.00;102195.66;2115558;27;20196;-70
2023/01/05 03:46:21;;;;;;;22.30;18.23;;;;;;;5.24;100.00;102190.44;2114946;27;20252;-70
2023/01/05 03:47:22;;;;;;;20.92;17.25;;;;;;;5.31;100.00;102194.16;2116734;27;20271;-70
2023/01/05 03:48:26;;;;;;;21.80;18.73;;;;;;;5.33;100.00;102196.56;2118127;27;20189;-70
2023/01/05 03:49:26;;;;;;;23.95;18.40;;;;;;;5.34;100.00;102198.91;2114219;27;20182;-70
2023/01/05 03:50:27;;;;;;;21.23;15.87;;;;;;;5.33;100.00;102202.81;2111970;27;20225;-70
2023/01/05 03:51:28;;;;;;;19.67;14.77;;;;;;;5.28;100.00;102192.09;2116886;27;20172;-70
2023/01/05 03:52:28;;;;;;;17.63;13.90;;;;;;;5.31;100.00;102199.66;2114373;27;20653;-70
2023/01/05 03:53:28;;;;;;;16.90;12.83;;;;;;;5.18;100.00;102173.44;2111219;28;20173;-70
2023/01/05 03:54:29;;;;;;;20.23;14.37;;;;;;;5.25;100.00;102183.78;2111422;27;20189;-70
2023/01/05 03:55:29;;;;;;;20.30;13.90;;;;;;;5.22;100.00;102187.25;2116222;27;20673;-70
2023/01/05 03:56:30;;;;;;;18.07;13.47;;;;;;;5.19;100.00;102182.47;2112534;28;20193;-70
2023/01/05 03:57:30;;;;;;;21.07;16.70;;;;;;;5.18;100.00;102178.16;2110934;28;20215;-70
2023/01/05 03:58:31;;;;;;;23.00;19.43;;;;;;;4.50;100.00;102064.31;2112108;27;20602;-70
2023/01/05 03:59:31;;;;;;;25.53;19.97;;;;;;;5.22;100.00;102170.75;2111744;28;20181;-70
2023/01/05 04:00:32;;;;;;;22.80;17.37;;;;;;;5.23;100.00;102175.13;2116892;27;20830;-70
2023/01/05 04:01:32;;;;;;;20.67;14.37;;;;;;;5.16;100.00;102164.75;2110154;28;20682;-70
2023/01/05 04:02:32;;;;;;;17.90;15.07;;;;;;;5.20;100.00;102170.31;2116364;27;20573;-70
2023/01/05 04:03:33;;;;;;;18.23;13.27;;;;;;;5.18;100.00;102167.94;2117128;27;20201;-70
2023/01/05 04:04:33;;;;;;;21.10;16.17;;;;;;;5.16;100.00;102166.69;2114072;27;20227;-70
2023/01/05 04:05:34;;;;;;;19.23;15.37;;;;;;;5.14;100.00;102164.28;2114028;28;20267;-70
2023/01/05 04:06:34;;;;;;;20.80;14.87;;;;;;;4.44;100.00;102050.09;2113570;28;20704;-70
2023/01/05 04:07:35;;;;;;;20.17;14.93;;;;;;;4.97;100.00;102152.94;2107063;28;20212;-70
2023/01/05 04:08:35;;;;;;;20.73;16.67;;;;;;;5.14;100.00;102158.03;2095386;28;20198;-70
2023/01/05 04:09:36;;;;;;;23.07;17.37;;;;;;;5.15;100.00;102152.19;2104881;28;20732;-70
2023/01/05 04:10:36;;;;;;;23.33;14.87;;;;;;;5.10;100.00;102149.72;2115298;27;20224;-70
2023/01/05 04:11:36;;;;;;;16.07;12.83;;;;;;;4.45;100.00;102051.66;2114113;28;20534;-70
2023/01/05 04:12:37;;;;;;;20.30;13.83;;;;;;;5.02;100.00;102133.44;2109693;28;20238;-70
2023/01/05 04:13:37;;;;;;;22.53;15.60;;;;;;;4.95;100.00;102127.75;2113120;28;20185;-70
2023/01/05 04:14:38;;;;;;;20.10;14.33;;;;;;;4.45;100.00;102076.38;2104320;28;20216;-70
2023/01/05 04:15:39;;;;;;;21.53;14.73;;;;;;;4.73;100.00;102114.69;2105060;28;20258;-70
2023/01/05 04:16:39;;;;;;;19.10;15.05;;;;;;;4.83;100.00;102127.88;2114318;28;20196;-70
2023/01/05 04:17:40;;;;;;;18.63;13.67;;;;;;;4.76;100.00;102124.94;2115568;28;20262;-70
2023/01/05 04:18:40;;;;;;;21.63;16.37;;;;;;;3.94;100.00;101999.81;2119723;28;20215;-70
2023/01/05 04:19:41;;;;;;;21.73;15.53;;;;;;;4.81;100.00;102132.91;2115663;28;20249;-70
2023/01/05 04:20:41;;;;;;;21.03;14.97;;;;;;;4.63;100.00;102105.06;2111030;28;20188;-70
2023/01/05 04:21:41;;;;;;;19.40;14.90;;;;;;;4.75;100.00;102129.66;2116372;28;20217;-70
2023/01/05 04:22:42;;;;;;;20.80;14.87;;;;;;;4.76;100.00;102127.69;2119053;28;20181;-70
2023/01/05 04:23:42;;;;;;;18.97;14.03;;;;;;;4.51;100.00;102099.66;2120093;28;20180;-70
2023/01/05 04:24:43;;;;;;;15.73;13.47;;;;;;;4.56;100.00;102106.84;2114471;28;20284;-70
2023/01/05 04:25:45;;;;;;;18.93;14.23;;;;;;;4.52;100.00;102108.69;2112995;28;20184;-70
2023/01/05 04:26:46;;;;;;;20.75;14.50;;;;;;;4.52;100.00;102122.41;2111090;28;20642;-70
2023/01/05 04:27:46;;;;;;;20.97;14.93;;;;;;;3.96;100.00;102027.72;2113367;28;20197;-70
2023/01/05 04:28:47;;;;;;;21.27;16.60;;;;;;;4.50;100.00;102121.97;2114299;28;20276;-70
2023/01/05 04:29:48;;;;;;;21.25;14.88;;;;;;;4.41;100.00;102099.41;2111802;28;20174;-70
2023/01/05 04:30:50;;;;;;;22.33;15.60;;;;;;;4.46;100.00;102110.91;2116059;28;20255;-70
2023/01/05 04:31:51;;;;;;;19.85;14.82;;;;;;;4.42;100.00;102109.22;2113389;28;20176;-70
2023/01/05 04:32:52;;;;;;;19.67;14.20;;;;;;;4.43;100.00;102108.88;2121290;28;20171;-70
2023/01/05 04:33:53;;;;;;;19.58;13.68;;;;;;;4.47;100.00;102114.44;2113867;28;20210;-70
2023/01/05 04:34:53;;;;;;;17.60;13.63;;;;;;;4.46;100.00;102113.66;2114810;28;20193;-70
2023/01/05 04:35:54;;;;;;;18.77;13.70;;;;;;;4.44;100.00;102113.22;2116049;28;20253;-70
2023/01/05 04:36:54;;;;;;;19.03;14.33;;;;;;;4.23;100.00;102082.50;2116868;28;20628;-70
2023/01/05 04:37:54;;;;;;;20.87;13.67;;;;;;;3.79;100.00;102009.66;2113717;28;20277;-70
2023/01/05 04:38:55;;;;;;;16.37;12.33;;;;;;;3.67;100.00;102009.75;2117298;28;20191;-70
2023/01/05 04:39:55;;;;;;;20.73;12.50;;;;;;;4.42;100.00;102122.97;2116526;28;20194;-70
2023/01/05 04:40:56;;;;;;;17.90;12.93;;;;;;;4.39;100.00;102116.22;2109501;28;20192;-70
2023/01/05 04:41:56;;;;;;;22.73;14.30;;;;;;;4.20;100.00;102099.66;2111951;28;20194;-70
2023/01/05 04:42:57;;;;;;;21.50;15.10;;;;;;;4.30;100.00;102121.09;2117709;28;20224;-70
2023/01/05 04:43:57;;;;;;;16.60;13.13;;;;;;;4.16;100.00;102112.50;2114376;28;20233;-70
2023/01/05 04:44:57;;;;;;;24.40;12.17;;;;;;;3.91;100.00;102080.88;2112064;28;20260;-70
2023/01/05 04:45:58;;;;;;;16.57;11.63;;;;;;;4.09;100.00;102114.25;2114937;28;20188;-70
2023/01/05 04:46:58;;;;;;;15.57;11.87;;;;;;;3.79;100.00;102077.44;2118633;28;20189;-70
2023/01/05 04:47:59;;;;;;;17.00;11.77;;;;;;;3.92;100.00;102095.41;2113561;28;20182;-70
2023/01/05 04:49:00;;;;;;;14.23;11.77;;;;;;;3.67;100.00;102061.84;2113526;28;20181;-70
2023/01/05 04:50:00;;;;;;;16.83;12.03;;;;;;;4.02;100.00;102101.16;2112028;28;20196;-70
2023/01/05 04:51:01;;;;;;;17.40;11.37;;;;;;;4.02;100.00;102103.09;2114316;28;20228;-70
2023/01/05 04:52:01;;;;;;;13.83;10.80;;;;;;;3.91;100.00;102097.31;2117325;28;20590;-70
2023/01/05 04:53:01;;;;;;;16.57;11.40;;;;;;;3.14;100.00;101982.84;2113732;28;20464;-68
2023/01/05 04:54:02;;;;;;;14.97;11.30;;;;;;;3.97;100.00;102097.88;2112849;28;20627;-63
2023/01/05 04:55:03;;;;;;;14.53;12.37;;;;;;;3.96;100.00;102101.78;2111720;28;20190;-62
2023/01/05 04:56:04;;;;;;;18.27;12.90;;;;;;;3.96;100.00;102088.06;2113362;28;20218;-63
2023/01/05 04:57:04;;;;;;;16.80;13.53;;;;;;;3.93;100.00;102081.34;2111515;28;20195;-63
2023/01/05 04:58:05;;;;;;;21.13;15.40;;;;;;;3.91;100.00;102083.63;2116568;28;20581;-64
2023/01/05 04:59:05;;;;;;;22.43;16.33;;;;;;;3.92;100.00;102085.22;2111364;28;20667;-65
2023/01/05 05:00:07;;;;;;;23.53;16.40;;;;;;;3.76;100.00;102076.19;2117223;28;20190;-64
2023/01/05 05:01:08;;;;;;;26.20;18.77;;;;;;;3.57;100.00;102037.69;2103195;28;20264;-65
2023/01/05 05:02:10;;;;;;;26.47;19.57;;;;;;;3.95;100.00;102078.25;2101494;28;20176;-65
2023/01/05 05:03:10;;;;;;;36.15;22.95;;;;;;;3.88;100.00;102072.56;2114824;28;20509;-65
2023/01/05 05:04:11;;;;;;;39.27;29.13;;;;;;;3.95;100.00;102072.75;2115260;28;20190;-64
2023/01/05 05:05:11;;;;;;;35.80;24.80;;;;;;;3.93;100.00;102081.34;2114395;28;20698;-64
2023/01/05 05:06:11;;;;;;;34.67;25.43;;;;;;;3.81;100.00;102067.72;2115161;28;20189;-64
2023/01/05 05:07:12;;;;;;;34.77;24.47;;;;;;;3.09;100.00;101966.66;2116724;28;20194;-64
2023/01/05 05:08:13;;;;;;;40.07;25.00;;;;;;;2.73;100.00;101897.59;2114190;28;20692;-65
2023/01/05 05:09:13;;;;;;;33.53;21.23;;;;;;;3.84;100.00;102077.94;2109645;28;20231;-66
2023/01/05 05:10:16;;;;;;;30.60;19.87;;;;;;;3.89;100.00;102085.91;2108777;28;20279;-67
2023/01/05 05:11:17;;;;;;;31.65;19.25;;;;;;;2.94;100.00;101931.03;2113172;28;20186;-67
2023/01/05 05:12:20;;;;;;;20.70;15.67;;;;;;;3.83;100.00;102087.34;2113882;28;20174;-67
2023/01/05 05:13:21;;;;;;;26.67;18.38;;;;;;;3.80;100.00;102087.25;2119835;28;20175;-64
2023/01/05 05:14:21;;;;;;;28.13;18.93;;;;;;;3.60;100.00;102080.81;2116036;28;20191;-64
2023/01/05 05:15:22;;;;;;;33.97;21.47;;;;;;;3.48;100.00;102102.81;2115356;28;20789;-64
2023/01/05 05:16:22;;;;;;;41.30;22.07;;;;;;;3.36;100.00;102097.38;2114771;28;20244;-65
2023/01/05 05:17:22;;;;;;;38.73;21.33;;;;;;;3.23;100.00;102084.09;2114251;28;20272;-64
2023/01/05 05:18:23;;;;;;;39.93;21.97;;;;;;;3.37;100.00;102096.22;2112441;28;20186;-63
2023/01/05 05:19:23;;;;;;;32.10;20.03;;;;;;;3.42;100.00;102093.25;2113457;28;20166;-63
2023/01/05 05:20:24;;;;;;;30.07;19.63;;;;;;;3.50;100.00;102096.97;2115219;28;20205;-62